Time;durP1;ratioP1;P1;durP2;ratioP2;P2;SDS_P1;SDS_P2;PMS_P1;PMS_P2;Temp;Humidity;BMP_temperature;BMP_pressure;BME280_temperature;BME280_humidity;BME280_pressure;Samples;Min_cycle;Max_cycle;Signal;HPM_P1;HPM_P2
2023/03/03 00:00:57;;;;;;;30.45;23.00;;;7.40;99.90;;;;;;4962724;28;20026;-92
2023/03/03 00:03:29;;;;;;;41.80;27.20;;;7.30;99.90;;;;;;4962035;28;20041;-92
2023/03/03 00:05:56;;;;;;;37.03;25.40;;;7.20;99.90;;;;;;4962178;28;20041;-91
2023/03/03 00:08:23;;;;;;;35.15;27.20;;;7.20;99.90;;;;;;4962078;28;20030;-92
2023/03/03 00:10:50;;;;;;;39.15;28.02;;;7.20;99.90;;;;;;4962235;28;20026;-92
2023/03/03 00:13:22;;;;;;;36.00;26.88;;;7.20;99.90;;;;;;4962318;28;20189;-92
2023/03/03 00:15:50;;;;;;;35.30;26.30;;;7.10;99.90;;;;;;4962004;28;20488;-92
2023/03/03 00:18:32;;;;;;;39.28;27.13;;;7.10;99.90;;;;;;4961778;28;20081;-93
2023/03/03 00:21:01;;;;;;;40.85;27.05;;;7.00;99.90;;;;;;4962101;28;20022;-92
2023/03/03 00:23:37;;;;;;;34.15;25.33;;;6.90;99.90;;;;;;4961960;28;20030;-91
2023/03/03 00:26:27;;;;;;;37.60;27.38;;;6.90;99.90;;;;;;4961925;28;20113;-91
2023/03/03 00:28:55;;;;;;;49.63;32.55;;;6.80;99.90;;;;;;4962164;28;20026;-92
2023/03/03 00:31:33;;;;;;;43.70;29.70;;;6.80;99.90;;;;;;4961752;28;20121;-91
2023/03/03 00:34:14;;;;;;;39.75;29.70;;;6.80;99.90;;;;;;4977786;28;20054;-91
2023/03/03 00:36:41;;;;;;;43.85;30.30;;;6.80;99.90;;;;;;4977401;28;20042;-91
2023/03/03 00:39:29;;;;;;;35.03;27.02;;;6.70;99.90;;;;;;4961429;28;20026;-92
2023/03/03 00:41:59;;;;;;;43.45;28.23;;;6.70;99.90;;;;;;4961696;28;20416;-92
2023/03/03 00:44:56;;;;;;;42.13;27.55;;;6.70;99.90;;;;;;4961447;28;20026;-91
2023/03/03 00:47:40;;;;;;;35.22;26.58;;;6.60;99.90;;;;;;4942324;28;20122;-91
2023/03/03 00:50:26;;;;;;;36.08;28.35;;;6.60;99.90;;;;;;4958386;28;20070;-93
2023/03/03 00:53:13;;;;;;;39.13;28.92;;;6.60;99.90;;;;;;4942701;28;20053;-92
2023/03/03 00:55:40;;;;;;;42.60;28.63;;;6.50;99.90;;;;;;4958618;28;20085;-94
2023/03/03 00:58:06;;;;;;;34.90;26.77;;;6.40;99.90;;;;;;4958269;28;20026;-93
2023/03/03 01:00:40;;;;;;;46.08;29.67;;;6.40;99.90;;;;;;4958399;28;20030;-91
2023/03/03 01:03:13;;;;;;;37.80;26.95;;;6.40;99.90;;;;;;4958341;28;20117;-94
2023/03/03 01:05:40;;;;;;;39.05;28.13;;;6.30;99.90;;;;;;4958746;28;20066;-93
2023/03/03 01:08:06;;;;;;;42.08;27.75;;;6.30;99.90;;;;;;4958083;28;20023;-92
2023/03/03 01:10:38;;;;;;;46.10;29.88;;;6.30;99.90;;;;;;4958819;28;20093;-91
2023/03/03 01:13:06;;;;;;;36.63;27.88;;;6.30;99.90;;;;;;4958466;28;20042;-91
2023/03/03 01:15:33;;;;;;;39.95;29.50;;;6.30;99.90;;;;;;4962016;28;20022;-94
2023/03/03 01:17:59;;;;;;;42.30;29.02;;;6.20;99.90;;;;;;4959609;28;20065;-91
2023/03/03 01:20:26;;;;;;;34.15;27.88;;;6.20;99.90;;;;;;4962465;28;20030;-92
2023/03/03 01:22:52;;;;;;;41.40;29.20;;;6.20;99.90;;;;;;4963250;28;20031;-92
2023/03/03 01:25:18;;;;;;;45.15;30.23;;;6.20;99.90;;;;;;4963058;28;20027;-91
2023/03/03 01:27:45;;;;;;;40.90;29.83;;;6.10;99.90;;;;;;4963194;28;20034;-90
2023/03/03 01:30:12;;;;;;;41.17;29.52;;;6.20;99.90;;;;;;4962709;28;20115;-93
2023/03/03 01:32:38;;;;;;;36.80;28.35;;;6.20;99.90;;;;;;4982542;28;20026;-91
2023/03/03 01:35:06;;;;;;;40.92;29.05;;;6.20;99.90;;;;;;5008571;28;20016;-92
2023/03/03 01:37:35;;;;;;;43.42;28.90;;;6.10;99.90;;;;;;4989955;28;20141;-91
2023/03/03 01:40:05;;;;;;;35.25;28.20;;;6.20;99.90;;;;;;4997524;28;20085;-92
2023/03/03 01:42:32;;;;;;;37.97;26.88;;;6.20;99.90;;;;;;4981239;28;20064;-93
2023/03/03 01:45:22;;;;;;;38.72;28.55;;;6.20;99.90;;;;;;4996975;28;20065;-91
2023/03/03 01:48:09;;;;;;;37.92;28.30;;;6.30;99.90;;;;;;4996940;28;20067;-91
2023/03/03 01:50:44;;;;;;;44.70;28.58;;;6.30;99.90;;;;;;4997581;28;20042;-91
2023/03/03 01:53:19;;;;;;;39.63;28.92;;;6.30;99.90;;;;;;4995914;28;20049;-92
2023/03/03 01:55:47;;;;;;;35.08;26.88;;;6.30;99.90;;;;;;4996680;28;20484;-91
2023/03/03 01:58:20;;;;;;;34.92;25.90;;;6.30;99.90;;;;;;4996466;28;20443;-93
2023/03/03 02:00:52;;;;;;;34.63;25.92;;;6.20;99.90;;;;;;4996609;28;20097;-92
2023/03/03 02:03:22;;;;;;;37.88;26.77;;;6.30;99.90;;;;;;4996191;28;20409;-94
2023/03/03 02:05:52;;;;;;;35.40;25.45;;;6.50;99.90;;;;;;4996007;28;20030;-92
2023/03/03 02:08:25;;;;;;;35.92;24.95;;;6.50;99.90;;;;;;4996174;28;20037;-92
2023/03/03 02:10:52;;;;;;;59.15;34.63;;;6.50;99.90;;;;;;4981137;28;20037;-92
2023/03/03 02:13:21;;;;;;;70.13;39.40;;;6.50;99.90;;;;;;4996571;28;20041;-92
2023/03/03 02:15:49;;;;;;;77.63;40.67;;;6.50;99.90;;;;;;4996367;28;20035;-94
2023/03/03 02:18:19;;;;;;;55.63;32.92;;;6.50;99.90;;;;;;4991998;28;20052;-93
2023/03/03 02:21:09;;;;;;;58.03;34.17;;;6.50;99.90;;;;;;4996120;28;20026;-93
2023/03/03 02:24:01;;;;;;;69.32;35.65;;;6.50;99.90;;;;;;4996970;28;20023;-91
2023/03/03 02:26:32;;;;;;;59.42;35.08;;;6.40;99.90;;;;;;4996276;28;20057;-92
2023/03/03 02:29:04;;;;;;;72.22;38.20;;;6.30;99.90;;;;;;4996332;28;20026;-93
2023/03/03 02:31:31;;;;;;;58.58;34.92;;;6.30;99.90;;;;;;4996255;28;20030;-92
2023/03/03 02:33:59;;;;;;;63.63;34.85;;;6.20;99.90;;;;;;4996539;28;20038;-92
2023/03/03 02:36:30;;;;;;;58.65;33.08;;;6.20;99.90;;;;;;4997341;28;20027;-92
2023/03/03 02:39:19;;;;;;;54.83;30.67;;;6.10;99.90;;;;;;4975849;28;20046;-92
2023/03/03 02:42:05;;;;;;;57.03;32.97;;;5.90;99.90;;;;;;4964660;28;20139;-91
2023/03/03 02:44:39;;;;;;;59.15;33.30;;;5.90;99.90;;;;;;4964636;28;20037;-92
2023/03/03 02:47:09;;;;;;;55.58;33.22;;;5.90;99.90;;;;;;4962665;28;20508;-91
2023/03/03 02:49:37;;;;;;;51.78;30.40;;;5.90;99.90;;;;;;4960205;28;20035;-93
2023/03/03 02:52:10;;;;;;;46.05;27.73;;;5.80;99.90;;;;;;4944171;28;20026;-91
2023/03/03 02:54:40;;;;;;;47.47;28.17;;;5.90;99.90;;;;;;4944774;28;20039;-92
2023/03/03 02:57:07;;;;;;;41.63;26.77;;;5.90;99.90;;;;;;4944636;28;20031;-91
2023/03/03 02:59:34;;;;;;;36.88;25.15;;;5.90;99.90;;;;;;4944687;28;20026;-91
2023/03/03 03:02:08;;;;;;;45.35;25.83;;;5.90;99.90;;;;;;4946056;28;20030;-92
2023/03/03 03:04:35;;;;;;;42.33;24.98;;;5.90;99.90;;;;;;4944648;28;20030;-91
2023/03/03 03:07:02;;;;;;;42.42;25.50;;;5.80;99.90;;;;;;4950436;28;20432;-93
2023/03/03 03:09:32;;;;;;;47.10;25.92;;;5.80;99.90;;;;;;4952426;28;20038;-94
2023/03/03 03:12:01;;;;;;;45.85;27.98;;;5.80;99.90;;;;;;4951894;28;20061;-92
2023/03/03 03:14:30;;;;;;;49.17;28.77;;;5.70;99.90;;;;;;4954597;28;20050;-92
2023/03/03 03:16:58;;;;;;;46.22;26.08;;;5.70;99.90;;;;;;4944497;28;20026;-92
2023/03/03 03:19:27;;;;;;;37.47;24.45;;;5.70;99.90;;;;;;4944677;28;20121;-92
2023/03/03 03:21:54;;;;;;;37.78;24.85;;;5.60;99.90;;;;;;4943765;28;20516;-91
2023/03/03 03:24:21;;;;;;;46.05;27.35;;;5.50;99.90;;;;;;4944757;28;20026;-92
2023/03/03 03:26:54;;;;;;;38.97;26.00;;;5.60;99.90;;;;;;4959887;28;20038;-91
2023/03/03 03:29:22;;;;;;;46.15;27.40;;;5.50;99.90;;;;;;4943790;28;20034;-92
2023/03/03 03:31:48;;;;;;;46.20;28.52;;;5.50;99.90;;;;;;4943983;28;20109;-92
2023/03/03 03:34:15;;;;;;;45.15;27.73;;;5.50;99.90;;;;;;4943761;28;20045;-91
2023/03/03 03:36:41;;;;;;;42.90;27.10;;;5.50;99.90;;;;;;4981473;28;20492;-91
2023/03/03 03:39:10;;;;;;;42.30;26.58;;;5.50;99.90;;;;;;4998415;28;20088;-92
2023/03/03 03:41:41;;;;;;;39.55;25.80;;;5.40;99.90;;;;;;4982492;28;20038;-91
2023/03/03 03:44:08;;;;;;;39.72;24.92;;;5.30;99.90;;;;;;4998212;28;20034;-93
2023/03/03 03:46:35;;;;;;;38.08;25.60;;;5.30;99.90;;;;;;4981884;28;20385;-92
2023/03/03 03:49:02;;;;;;;38.97;23.98;;;5.20;99.90;;;;;;4982367;28;20034;-91
2023/03/03 03:51:30;;;;;;;34.92;23.60;;;5.20;99.90;;;;;;4997950;28;20072;-91
2023/03/03 03:53:57;;;;;;;35.97;23.05;;;5.20;99.90;;;;;;4997789;28;20057;-91
2023/03/03 03:56:23;;;;;;;33.28;23.48;;;5.20;99.90;;;;;;4998058;28;20036;-91
2023/03/03 03:58:53;;;;;;;37.58;23.83;;;5.20;99.90;;;;;;4982197;28;20030;-91
2023/03/03 04:01:20;;;;;;;43.35;24.45;;;5.30;99.90;;;;;;4981676;28;20026;-92
2023/03/03 04:03:49;;;;;;;33.67;21.95;;;5.30;99.90;;;;;;4997981;28;20030;-93
2023/03/03 04:06:19;;;;;;;33.90;22.27;;;5.30;99.90;;;;;;4997867;28;20080;-91
2023/03/03 04:08:47;;;;;;;34.95;22.33;;;5.30;99.90;;;;;;4982190;28;20084;-92
2023/03/03 04:11:15;;;;;;;33.13;21.67;;;5.40;99.90;;;;;;4980502;28;20196;-91
2023/03/03 04:13:42;;;;;;;32.80;20.33;;;5.40;99.90;;;;;;4981402;28;20038;-92
2023/03/03 04:16:09;;;;;;;34.38;20.95;;;5.40;99.90;;;;;;4981469;28;20026;-91
2023/03/03 04:18:38;;;;;;;33.58;21.10;;;5.40;99.90;;;;;;4997951;28;20026;-93
2023/03/03 04:21:05;;;;;;;31.20;21.15;;;5.50;99.90;;;;;;4981703;28;20036;-92
2023/03/03 04:23:32;;;;;;;27.08;19.77;;;5.40;99.90;;;;;;4997489;28;20026;-92
2023/03/03 04:26:04;;;;;;;25.90;18.92;;;5.40;99.90;;;;;;4997662;28;20391;-92
2023/03/03 04:28:31;;;;;;;31.15;19.83;;;5.30;99.90;;;;;;4981355;28;20034;-93
2023/03/03 04:30:59;;;;;;;27.33;19.25;;;5.20;99.90;;;;;;4981353;28;20022;-91
2023/03/03 04:33:28;;;;;;;27.33;18.38;;;5.10;99.90;;;;;;4974584;28;20101;-90
2023/03/03 04:35:55;;;;;;;27.73;20.38;;;5.10;99.90;;;;;;4974500;28;20034;-91
2023/03/03 04:38:22;;;;;;;27.02;18.98;;;5.10;99.90;;;;;;4955504;29;20051;-91
2023/03/03 04:40:49;;;;;;;25.48;17.92;;;5.10;99.90;;;;;;4956436;28;20123;-91
2023/03/03 04:43:18;;;;;;;26.83;17.65;;;5.10;99.90;;;;;;4971776;28;20027;-90
2023/03/03 04:45:44;;;;;;;25.55;17.10;;;5.10;99.90;;;;;;4959058;29;20031;-93
2023/03/03 04:48:11;;;;;;;23.33;17.70;;;5.10;99.90;;;;;;4960986;28;20096;-92
2023/03/03 04:50:38;;;;;;;30.40;17.55;;;5.10;99.90;;;;;;4978154;28;20023;-93
2023/03/03 04:53:04;;;;;;;25.98;17.77;;;5.00;99.90;;;;;;4960816;28;20477;-94
2023/03/03 04:55:31;;;;;;;25.75;17.85;;;5.00;99.90;;;;;;4955658;28;20023;-92
2023/03/03 04:58:12;;;;;;;26.98;18.73;;;5.00;99.90;;;;;;4965834;23;20069;-93
2023/03/03 05:00:42;;;;;;;23.30;16.88;;;5.00;99.90;;;;;;4957110;28;20035;-92
2023/03/03 05:03:12;;;;;;;24.98;16.98;;;5.10;99.90;;;;;;4939928;29;20027;-93
2023/03/03 05:05:41;;;;;;;25.52;17.88;;;5.00;99.90;;;;;;4920885;29;20059;-93
2023/03/03 05:08:08;;;;;;;25.75;17.02;;;5.00;99.90;;;;;;4951760;29;20031;-92
2023/03/03 05:10:34;;;;;;;25.63;17.15;;;4.90;99.90;;;;;;4951909;29;20031;-93
2023/03/03 05:13:01;;;;;;;22.48;16.48;;;4.90;99.90;;;;;;4935972;29;20046;-94
2023/03/03 05:15:28;;;;;;;24.75;17.17;;;4.90;99.90;;;;;;4952894;28;20434;-93
2023/03/03 05:17:55;;;;;;;20.15;15.82;;;4.80;99.90;;;;;;4951905;29;20490;-95
2023/03/03 05:20:22;;;;;;;21.02;16.42;;;4.80;99.90;;;;;;4951765;29;20028;-92
2023/03/03 05:22:49;;;;;;;18.98;15.27;;;4.90;99.90;;;;;;4937249;29;20031;-92
2023/03/03 05:25:16;;;;;;;21.50;15.68;;;4.90;99.90;;;;;;4951600;28;20032;-92
2023/03/03 05:27:43;;;;;;;19.92;16.45;;;4.90;99.90;;;;;;4951873;29;20042;-94
2023/03/03 05:30:10;;;;;;;23.23;17.73;;;4.80;99.90;;;;;;4966352;28;20028;-93
2023/03/03 05:32:37;;;;;;;23.67;17.15;;;4.90;99.90;;;;;;4944041;28;20382;-91
2023/03/03 05:35:05;;;;;;;24.17;16.92;;;4.90;99.90;;;;;;4954571;28;20027;-92
2023/03/03 05:37:34;;;;;;;20.13;16.27;;;4.80;99.90;;;;;;4961795;28;20127;-93
2023/03/03 05:40:20;;;;;;;20.63;15.68;;;4.90;99.90;;;;;;4947654;28;20030;-93
2023/03/03 05:43:01;;;;;;;23.23;17.00;;;4.90;99.90;;;;;;4963577;28;20043;-94
2023/03/03 05:45:34;;;;;;;20.70;18.10;;;4.90;99.90;;;;;;4957018;28;20028;-93
2023/03/03 05:48:10;;;;;;;20.85;16.48;;;4.90;99.90;;;;;;4960973;28;20047;-94
2023/03/03 05:50:49;;;;;;;28.27;19.33;;;4.90;99.90;;;;;;4931093;29;20095;-92
2023/03/03 05:56:20;;;;;;;30.38;21.02;;;5.00;99.90;;;;;;5000646;28;20085;-93
2023/03/03 05:58:47;;;;;;;37.13;23.92;;;5.10;99.90;;;;;;4968163;28;20042;-91
2023/03/03 06:01:14;;;;;;;47.30;26.13;;;5.20;99.90;;;;;;4944901;28;20389;-94
2023/03/03 06:03:40;;;;;;;43.30;26.23;;;5.30;99.90;;;;;;4977308;28;20034;-92
2023/03/03 06:06:08;;;;;;;41.08;25.42;;;5.50;99.90;;;;;;4985178;28;20026;-89
2023/03/03 06:08:34;;;;;;;37.42;24.30;;;5.90;99.90;;;;;;4985183;28;20030;-92
2023/03/03 06:11:01;;;;;;;36.38;24.13;;;6.60;99.90;;;;;;4984113;28;20065;-92
2023/03/03 06:13:29;;;;;;;34.10;22.20;;;7.50;99.90;;;;;;4990625;28;20026;-92
2023/03/03 06:15:56;;;;;;;32.60;24.00;;;8.30;99.90;;;;;;4984810;28;20030;-91
2023/03/03 06:18:23;;;;;;;36.45;26.98;;;8.90;99.90;;;;;;4961195;28;20042;-92
2023/03/03 06:20:53;;;;;;;36.45;28.15;;;9.30;99.90;;;;;;4960746;28;20481;-92
2023/03/03 06:23:21;;;;;;;32.78;29.35;;;9.30;99.90;;;;;;4980336;28;20397;-93
2023/03/03 06:25:47;;;;;;;34.45;30.88;;;9.50;99.90;;;;;;4972717;28;20030;-91
2023/03/03 06:28:14;;;;;;;33.28;30.20;;;9.60;99.90;;;;;;4977352;28;20038;-91
2023/03/03 06:30:41;;;;;;;34.90;31.73;;;9.70;99.90;;;;;;4970817;28;20380;-91
2023/03/03 06:33:07;;;;;;;33.25;30.17;;;10.20;99.90;;;;;;4979644;28;20041;-93
2023/03/03 06:35:34;;;;;;;29.80;27.10;;;10.70;99.90;;;;;;4984517;28;20549;-90
2023/03/03 06:38:00;;;;;;;29.70;26.98;;;11.10;99.90;;;;;;4983552;28;20065;-91
2023/03/03 06:40:27;;;;;;;28.10;25.50;;;11.30;99.90;;;;;;4983502;28;20031;-94
2023/03/03 06:42:54;;;;;;;29.67;26.70;;;11.80;99.90;;;;;;4983176;28;20041;-90
2023/03/03 06:45:20;;;;;;;29.45;26.55;;;11.90;99.90;;;;;;4983877;28;20045;-93
2023/03/03 06:47:47;;;;;;;29.20;26.55;;;12.00;99.90;;;;;;4984159;28;20026;-92
2023/03/03 06:50:19;;;;;;;29.25;26.65;;;12.10;99.90;;;;;;4983729;28;20506;-91
2023/03/03 06:52:46;;;;;;;28.58;25.90;;;12.30;99.90;;;;;;4983534;28;20037;-91
2023/03/03 06:55:20;;;;;;;27.85;25.10;;;12.40;99.90;;;;;;4980777;28;20074;-92
2023/03/03 06:57:47;;;;;;;27.35;25.05;;;12.60;99.90;;;;;;4979789;28;20037;-90
2023/03/03 07:00:23;;;;;;;27.10;24.45;;;12.70;99.90;;;;;;4979539;28;20117;-91
2023/03/03 07:02:59;;;;;;;27.48;25.13;;;12.90;99.90;;;;;;4979540;28;20026;-92
2023/03/03 07:05:27;;;;;;;27.95;25.45;;;13.20;99.90;;;;;;4979695;28;20022;-92
2023/03/03 07:07:56;;;;;;;26.92;24.25;;;13.20;99.90;;;;;;4979902;28;20034;-93
2023/03/03 07:10:29;;;;;;;26.45;24.10;;;13.60;99.90;;;;;;4979840;28;20023;-91
2023/03/03 07:13:10;;;;;;;23.88;22.08;;;13.90;99.90;;;;;;4979837;28;20039;-93
2023/03/03 07:15:37;;;;;;;24.70;22.40;;;14.00;99.90;;;;;;4981806;28;20033;-90
2023/03/03 07:18:22;;;;;;;24.35;21.85;;;14.00;99.90;;;;;;4979194;28;20037;-86
2023/03/03 07:20:48;;;;;;;24.83;22.27;;;13.90;99.90;;;;;;4978795;28;20030;-85
2023/03/03 07:23:20;;;;;;;22.95;21.00;;;14.00;99.90;;;;;;4978887;28;20033;-87
2023/03/03 07:25:47;;;;;;;24.58;22.50;;;13.90;99.90;;;;;;4978725;28;20027;-86
2023/03/03 07:28:16;;;;;;;23.48;21.52;;;14.00;99.90;;;;;;4979073;28;20153;-86
2023/03/03 07:30:42;;;;;;;22.83;20.73;;;14.20;99.90;;;;;;4978998;28;20125;-90
2023/03/03 07:33:23;;;;;;;21.08;19.67;;;14.30;99.90;;;;;;4978569;28;20157;-85
2023/03/03 07:35:50;;;;;;;23.25;20.95;;;14.60;99.90;;;;;;4978613;28;20121;-86
2023/03/03 07:38:31;;;;;;;22.92;20.63;;;14.80;99.90;;;;;;4978692;28;20030;-86
2023/03/03 07:41:10;;;;;;;21.75;20.08;;;15.00;99.90;;;;;;4979253;28;20034;-85
2023/03/03 07:44:06;;;;;;;24.00;20.17;;;15.40;99.90;;;;;;4991792;28;20081;-92
2023/03/03 08:06:44;;;;;;;21.80;20.00;;;16.90;99.90;;;;;;5769155;23;20104;-85
2023/03/03 08:09:27;;;;;;;20.85;19.00;;;17.10;99.90;;;;;;4962700;28;20031;-86
2023/03/03 08:12:29;;;;;;;21.08;19.48;;;16.90;99.90;;;;;;4978178;28;20054;-86
2023/03/03 08:14:57;;;;;;;19.95;18.48;;;17.30;99.90;;;;;;4974750;28;20039;-85
2023/03/03 08:17:29;;;;;;;19.42;17.83;;;16.60;99.90;;;;;;4974609;28;20027;-86
2023/03/03 08:19:56;;;;;;;20.55;18.77;;;16.30;99.90;;;;;;4958805;28;20027;-87
2023/03/03 08:22:37;;;;;;;20.05;18.40;;;16.10;99.90;;;;;;4944581;28;20031;-88
2023/03/03 08:25:03;;;;;;;19.08;17.70;;;15.90;99.90;;;;;;4944859;28;20116;-88
2023/03/03 08:27:30;;;;;;;19.13;17.73;;;16.20;99.90;;;;;;4944131;28;20023;-88
2023/03/03 08:29:56;;;;;;;21.77;18.30;;;16.30;99.90;;;;;;4960772;28;20117;-88
2023/03/03 08:32:22;;;;;;;19.88;18.25;;;16.00;99.90;;;;;;4962263;28;21667;-89
2023/03/03 08:34:48;;;;;;;20.33;18.77;;;16.40;99.90;;;;;;4983555;28;20373;-87
2023/03/03 08:37:15;;;;;;;21.60;19.00;;;16.00;99.90;;;;;;4999538;28;20058;-88
2023/03/03 08:39:41;;;;;;;20.95;19.02;;;15.80;99.90;;;;;;4996239;28;20096;-88
2023/03/03 08:42:08;;;;;;;20.33;18.80;;;15.90;99.90;;;;;;4979888;28;20026;-86
2023/03/03 08:44:34;;;;;;;19.40;18.08;;;15.80;99.90;;;;;;4980224;28;20061;-88
2023/03/03 08:47:00;;;;;;;19.67;17.98;;;16.20;99.90;;;;;;4982797;28;20475;-89
2023/03/03 08:49:26;;;;;;;19.90;18.50;;;16.00;99.90;;;;;;4970910;28;20045;-85
2023/03/03 08:51:53;;;;;;;18.60;17.17;;;15.90;99.90;;;;;;4944804;28;20058;-87
2023/03/03 08:54:19;;;;;;;18.85;17.45;;;16.20;99.90;;;;;;4944276;28;20034;-86
2023/03/03 08:56:46;;;;;;;19.63;17.73;;;16.00;99.90;;;;;;5231366;23;20591;-92
2023/03/03 08:59:12;;;;;;;18.85;17.58;;;16.30;99.90;;;;;;4942510;29;20031;-80
2023/03/03 09:01:39;;;;;;;18.58;17.40;;;16.40;99.90;;;;;;4957080;29;20485;-85
2023/03/03 09:04:05;;;;;;;19.48;18.15;;;16.40;99.90;;;;;;4941287;29;20027;-87
2023/03/03 09:06:32;;;;;;;19.17;17.70;;;16.40;99.90;;;;;;4958065;28;20028;-89
2023/03/03 09:08:59;;;;;;;19.25;17.70;;;16.30;99.90;;;;;;4941248;29;20027;-77
2023/03/03 09:11:27;;;;;;;19.17;17.98;;;16.10;99.90;;;;;;4957689;28;20023;-71
2023/03/03 09:14:05;;;;;;;19.88;18.42;;;15.80;99.90;;;;;;4957590;29;20041;-71
2023/03/03 09:16:37;;;;;;;18.95;17.48;;;16.00;99.90;;;;;;4940434;29;20037;-72
2023/03/03 09:19:29;;;;;;;19.25;17.83;;;16.10;99.90;;;;;;4937327;29;20039;-72
2023/03/03 09:22:22;;;;;;;19.25;17.88;;;16.30;99.90;;;;;;4930294;29;20102;-89
2023/03/03 09:24:56;;;;;;;19.08;17.98;;;16.10;99.90;;;;;;4951608;29;20090;-84
2023/03/03 09:27:32;;;;;;;19.20;17.90;;;16.00;99.90;;;;;;5042975;23;20141;-93
2023/03/03 09:30:28;;;;;;;19.42;18.23;;;16.20;99.90;;;;;;4961332;28;20038;-93
2023/03/03 09:32:57;;;;;;;19.13;17.80;;;15.90;99.90;;;;;;4977859;28;20035;-93
2023/03/03 09:35:40;;;;;;;18.58;17.27;;;15.50;99.90;;;;;;4965397;28;20019;-93
2023/03/03 10:19:57;;;;;;;19.95;18.55;;;16.60;99.90;;;;;;4978132;28;20419;-93
2023/03/03 10:33:19;;;;;;;19.15;17.55;;;16.10;99.90;;;;;;5473708;23;20036;-93
2023/03/03 10:36:32;;;;;;;18.75;17.45;;;16.20;99.90;;;;;;4982698;28;20584;-93
2023/03/03 10:39:34;;;;;;;17.42;16.23;;;16.00;99.90;;;;;;4972358;28;20117;-92
2023/03/03 10:42:43;;;;;;;18.63;17.33;;;16.10;99.90;;;;;;4967742;28;20034;-94
2023/03/03 10:45:44;;;;;;;18.38;17.02;;;16.00;99.90;;;;;;4964131;28;20081;-92
2023/03/03 10:48:35;;;;;;;17.90;16.73;;;16.30;99.90;;;;;;4965094;28;20026;-88
2023/03/03 10:51:50;;;;;;;18.83;17.02;;;16.30;99.90;;;;;;4948123;28;20051;-88
2023/03/03 10:55:00;;;;;;;18.23;16.83;;;16.30;99.90;;;;;;4980639;28;20369;-80
2023/03/03 10:57:35;;;;;;;18.30;16.65;;;16.10;99.90;;;;;;4951459;28;20269;-76
2023/03/03 11:00:13;;;;;;;18.27;16.73;;;16.30;99.90;;;;;;4998414;28;20048;-80
2023/03/03 11:03:25;;;;;;;17.90;16.85;;;16.40;99.90;;;;;;4964735;28;20031;-78
2023/03/03 11:06:09;;;;;;;18.27;16.88;;;16.30;99.90;;;;;;4971168;28;20038;-76
2023/03/03 11:09:03;;;;;;;18.58;17.55;;;16.20;99.90;;;;;;4965329;28;20026;-87
2023/03/03 11:11:44;;;;;;;17.95;16.80;;;15.90;99.90;;;;;;4965653;28;20022;-87
2023/03/03 11:14:28;;;;;;;18.58;17.20;;;15.90;99.90;;;;;;4965561;28;20057;-87
2023/03/03 11:16:57;;;;;;;18.30;17.08;;;15.90;99.90;;;;;;4965627;28;20450;-86
2023/03/03 11:19:53;;;;;;;17.92;16.73;;;16.00;99.90;;;;;;4965191;28;20034;-87
2023/03/03 11:22:32;;;;;;;18.63;17.23;;;16.20;99.90;;;;;;4965392;28;20026;-88
2023/03/03 11:25:02;;;;;;;18.52;17.02;;;16.10;99.90;;;;;;4965248;28;20094;-90
2023/03/03 11:27:54;;;;;;;18.63;16.98;;;16.10;99.90;;;;;;4965288;28;20022;-89
2023/03/03 11:30:39;;;;;;;18.23;16.52;;;16.40;99.90;;;;;;4965428;28;20069;-91
2023/03/03 11:33:11;;;;;;;17.88;16.25;;;16.50;99.90;;;;;;4965079;28;20038;-87
2023/03/03 11:36:00;;;;;;;17.55;16.02;;;16.40;99.90;;;;;;4964774;28;20085;-88
2023/03/03 11:38:47;;;;;;;17.60;16.30;;;16.30;99.90;;;;;;4965092;28;20400;-86
2023/03/03 11:41:32;;;;;;;17.52;16.00;;;16.30;99.90;;;;;;4965635;28;20038;-89
2023/03/03 11:44:20;;;;;;;17.38;15.88;;;16.40;99.90;;;;;;4965109;28;20027;-90
2023/03/03 11:47:17;;;;;;;17.05;15.50;;;16.30;99.90;;;;;;4964817;28;20045;-85
2023/03/03 11:50:15;;;;;;;17.90;16.17;;;16.20;99.90;;;;;;4964774;28;20035;-85
2023/03/03 11:53:12;;;;;;;17.25;15.57;;;16.20;99.90;;;;;;4964802;28;20037;-89
2023/03/03 23:53:19;;;;;;;12.45;4.97;;;10.20;99.90;;;;;;6038974;23;19991;-91
2023/03/03 23:55:45;;;;;;;11.48;4.78;;;10.30;99.90;;;;;;4969942;28;20050;-92
2023/03/03 23:58:12;;;;;;;8.40;4.60;;;10.30;99.90;;;;;;4963446;28;20034;-92
